createdAt,value
2018-04-24T00:01:56.433Z,48.70
2018-04-24T00:04:24.784Z,48.70
2018-04-24T00:06:52.354Z,48.70
2018-04-24T00:09:19.986Z,48.70
2018-04-24T00:11:47.674Z,48.70
2018-04-24T00:14:15.396Z,49.30
2018-04-24T00:16:43.017Z,48.70
2018-04-24T00:19:10.705Z,48.70
2018-04-24T00:21:39.273Z,48.70
2018-04-24T00:24:07.139Z,48.70
2018-04-24T00:26:34.817Z,48.70
2018-04-24T00:29:02.437Z,48.70
2018-04-24T00:31:30.049Z,48.70
2018-04-24T00:33:57.663Z,48.70
2018-04-24T00:36:25.401Z,48.70
2018-04-24T00:38:52.897Z,48.70
2018-04-24T00:41:21.131Z,48.70
2018-04-24T00:43:48.761Z,48.70
2018-04-24T00:46:16.372Z,48.70
2018-04-24T00:48:44.040Z,48.70
2018-04-24T00:51:11.644Z,48.70
2018-04-24T00:53:40.116Z,48.80
2018-04-24T00:56:07.734Z,48.80
2018-04-24T00:58:35.351Z,48.80
2018-04-24T01:01:02.963Z,48.80
2018-04-24T01:03:30.566Z,48.80
2018-04-24T01:05:58.213Z,48.70
2018-04-24T01:08:25.848Z,48.80
2018-04-24T01:10:53.450Z,48.70
2018-04-24T01:13:21.153Z,48.70
2018-04-24T01:15:49.481Z,48.80
2018-04-24T01:18:17.086Z,48.70
2018-04-24T01:20:44.648Z,48.80
2018-04-24T01:23:12.448Z,48.70
2018-04-24T01:25:40.076Z,48.70
2018-04-24T01:28:07.652Z,48.80
2018-04-24T01:30:35.305Z,48.70
2018-04-24T01:33:02.907Z,48.70
2018-04-24T01:35:30.580Z,48.70
2018-04-24T01:37:58.252Z,48.70
2018-04-24T01:40:25.875Z,48.80
2018-04-24T01:42:53.474Z,48.80
2018-04-24T01:45:22.080Z,48.70
2018-04-24T01:47:49.595Z,48.80
2018-04-24T01:50:17.179Z,48.80
2018-04-24T01:52:44.794Z,48.70
2018-04-24T01:55:12.367Z,48.80
2018-04-24T01:57:40.068Z,48.80
2018-04-24T02:00:08.464Z,48.80
2018-04-24T02:02:36.153Z,48.80
2018-04-24T02:05:03.742Z,48.80
2018-04-24T02:07:31.425Z,48.80
2018-04-24T02:09:59.566Z,48.80
2018-04-24T02:12:27.118Z,48.80
2018-04-24T02:14:54.696Z,48.80
2018-04-24T02:17:23.862Z,48.80
2018-04-24T02:19:51.638Z,48.80
2018-04-24T02:22:19.298Z,48.80
2018-04-24T02:24:46.923Z,48.80
2018-04-24T02:27:14.555Z,48.80
2018-04-24T02:29:42.174Z,48.80
2018-04-24T02:32:09.808Z,48.80
2018-04-24T02:34:37.397Z,48.80
2018-04-24T02:37:04.932Z,48.80
2018-04-24T02:39:32.647Z,48.80
2018-04-24T02:42:00.196Z,48.80
2018-04-24T02:44:27.734Z,48.80
2018-04-24T02:46:55.398Z,48.80
2018-04-24T02:49:23.062Z,48.80
2018-04-24T02:51:50.709Z,48.80
2018-04-24T02:54:18.265Z,48.80
2018-04-24T02:56:46.143Z,48.80
2018-04-24T02:59:13.716Z,48.80
2018-04-24T03:01:41.928Z,48.90
2018-04-24T03:04:09.521Z,48.80
2018-04-24T03:06:37.132Z,48.80
2018-04-24T03:09:05.648Z,48.80
2018-04-24T03:11:33.406Z,48.80
2018-04-24T03:14:01.056Z,48.80
2018-04-24T03:16:28.645Z,48.80
2018-04-24T03:18:57.058Z,48.80
2018-04-24T03:21:31.505Z,48.80
2018-04-24T03:24:01.920Z,48.80
2018-04-24T03:26:32.844Z,48.90
2018-04-24T03:29:03.907Z,48.80
2018-04-24T03:31:32.995Z,48.90
2018-04-24T03:34:03.712Z,48.80
2018-04-24T03:36:36.683Z,48.70
2018-04-24T03:39:07.317Z,48.80
2018-04-24T03:41:38.052Z,48.70
2018-04-24T03:44:11.955Z,48.70
2018-04-24T03:46:43.090Z,48.80
2018-04-24T03:49:12.669Z,48.80
2018-04-24T03:51:47.523Z,48.80
2018-04-24T03:54:18.315Z,48.80
2018-04-24T03:56:46.474Z,48.90
2018-04-24T03:59:16.469Z,48.80
2018-04-24T04:01:47.525Z,48.80
2018-04-24T04:04:18.741Z,48.80
2018-04-24T04:06:47.516Z,48.80
2018-04-24T04:09:18.764Z,48.80
2018-04-24T04:11:48.901Z,48.90
2018-04-24T04:14:18.762Z,48.90
2018-04-24T04:16:49.576Z,48.80
2018-04-24T04:19:29.354Z,48.80
2018-04-24T04:22:08.878Z,48.80
2018-04-24T04:24:54.293Z,48.80
2018-04-24T04:27:25.224Z,48.80
2018-04-24T04:32:35.322Z,49.40
2018-04-24T04:35:06.372Z,48.80
2018-04-24T04:37:38.463Z,48.90
2018-04-24T04:40:07.166Z,48.80
2018-04-24T04:42:38.254Z,48.90
2018-04-24T04:45:05.921Z,48.90
2018-04-24T04:47:33.441Z,48.80
2018-04-24T04:50:01.072Z,48.80
2018-04-24T04:52:29.459Z,48.90
2018-04-24T04:54:56.945Z,49.00
2018-04-24T04:57:24.453Z,49.20
2018-04-24T04:59:51.931Z,49.20
2018-04-24T05:04:54.541Z,49.10
2018-04-24T05:07:22.030Z,48.90
2018-04-24T05:09:49.496Z,49.00
2018-04-24T05:12:16.983Z,49.20
2018-04-24T05:14:45.229Z,49.20
2018-04-24T05:17:12.722Z,49.20
2018-04-24T05:19:40.956Z,49.00
2018-04-24T05:22:08.493Z,49.00
2018-04-24T05:24:35.980Z,49.00
2018-04-24T05:27:04.139Z,49.00
2018-04-24T05:29:31.624Z,49.00
2018-04-24T05:31:59.109Z,48.90
2018-04-24T05:34:27.025Z,48.80
2018-04-24T05:36:54.508Z,48.80
2018-04-24T05:39:23.678Z,48.70
2018-04-24T05:41:51.238Z,48.70
2018-04-24T05:44:18.741Z,48.60
2018-04-24T05:46:46.384Z,48.50
2018-04-24T05:49:14.646Z,48.60
2018-04-24T05:51:42.133Z,48.50
2018-04-24T05:54:10.387Z,48.70
2018-04-24T05:56:37.929Z,48.70
2018-04-24T05:59:05.399Z,48.70
2018-04-24T06:01:32.865Z,48.80
2018-04-24T06:04:01.035Z,48.80
2018-04-24T06:06:28.597Z,48.70
2018-04-24T06:08:56.833Z,48.80
2018-04-24T06:11:24.293Z,48.80
2018-04-24T06:13:51.830Z,48.90
2018-04-24T06:16:19.345Z,48.90
2018-04-24T06:18:47.688Z,49.20
2018-04-24T06:21:15.187Z,49.10
2018-04-24T06:23:43.460Z,49.50
2018-04-24T06:26:11.697Z,49.30
2018-04-24T06:28:39.229Z,49.30
2018-04-24T06:31:07.448Z,49.60
2018-04-24T06:33:34.933Z,49.50
2018-04-24T06:36:02.467Z,49.60
2018-04-24T06:38:29.928Z,49.60
2018-04-24T06:40:58.834Z,49.50
2018-04-24T06:43:27.064Z,49.50
2018-04-24T06:45:54.568Z,49.50
2018-04-24T06:48:22.816Z,49.30
2018-04-24T06:50:50.397Z,49.30
2018-04-24T06:53:18.012Z,49.30
2018-04-24T06:55:45.501Z,49.30
2018-04-24T06:58:13.751Z,49.20
2018-04-24T07:00:41.318Z,49.10
2018-04-24T07:03:08.712Z,49.10
2018-04-24T07:05:37.136Z,49.10
2018-04-24T07:08:04.697Z,49.10
2018-04-24T07:10:32.256Z,49.10
2018-04-24T07:12:59.753Z,49.00
2018-04-24T07:15:28.017Z,48.90
2018-04-24T07:17:56.264Z,48.90
2018-04-24T07:20:23.751Z,48.90
2018-04-24T07:22:51.683Z,48.90
2018-04-24T07:25:19.161Z,48.90
2018-04-24T07:27:46.634Z,48.90
2018-04-24T07:30:14.926Z,48.80
2018-04-24T07:32:42.410Z,48.80
2018-04-24T07:35:09.918Z,48.80
2018-04-24T07:37:37.501Z,48.80
2018-04-24T07:40:06.702Z,48.70
2018-04-24T07:42:34.198Z,48.70
2018-04-24T07:45:01.703Z,48.60
2018-04-24T07:47:29.981Z,49.30
2018-04-24T07:49:58.226Z,48.60
2018-04-24T07:52:25.750Z,48.60
2018-04-24T07:54:53.240Z,48.60
2018-04-24T07:57:20.807Z,48.60
2018-04-24T07:59:48.281Z,48.60
2018-04-24T08:02:16.557Z,48.60
2018-04-24T08:04:45.559Z,48.50
2018-04-24T08:07:13.804Z,48.60
2018-04-24T08:09:41.288Z,48.60
2018-04-24T08:12:09.555Z,48.50
2018-04-24T08:14:37.810Z,48.50
2018-04-24T08:17:05.923Z,48.60
2018-04-24T08:19:33.407Z,48.50
2018-04-24T08:22:01.489Z,48.60
2018-04-24T08:24:28.975Z,48.60
2018-04-24T08:26:56.464Z,48.50
2018-04-24T08:29:23.954Z,49.10
2018-04-24T08:31:51.454Z,48.60
2018-04-24T08:34:18.946Z,48.50
2018-04-24T08:36:47.361Z,48.20
2018-04-24T08:39:14.935Z,48.50
2018-04-24T08:41:42.433Z,48.50
2018-04-24T08:44:09.925Z,48.50
2018-04-24T08:46:37.412Z,48.60
2018-04-24T08:49:04.903Z,48.50
2018-04-24T08:51:35.109Z,48.70
2018-04-24T09:14:15.901Z,48.70
2018-04-24T09:16:44.169Z,48.60
2018-04-24T09:19:11.663Z,48.50
2018-04-24T09:21:39.159Z,48.60
2018-04-24T09:24:06.649Z,48.60
2018-04-24T09:26:34.955Z,48.60
2018-04-24T09:29:02.544Z,48.60
2018-04-24T09:31:35.794Z,48.60
2018-04-24T09:34:03.285Z,48.60
2018-04-24T09:36:30.815Z,48.60
2018-04-24T09:38:58.382Z,48.60
2018-04-24T09:41:25.850Z,48.60
2018-04-24T09:43:53.412Z,48.60
2018-04-24T09:46:20.833Z,48.60
2018-04-24T09:48:49.085Z,48.60
2018-04-24T09:51:16.628Z,48.60
2018-04-24T09:53:44.073Z,48.60
2018-04-24T09:56:11.572Z,48.60
2018-04-24T09:58:39.848Z,48.60
2018-04-24T10:01:08.089Z,48.70
2018-04-24T10:03:35.593Z,48.60
2018-04-24T10:06:03.103Z,48.60
2018-04-24T10:08:30.588Z,48.60
2018-04-24T10:10:58.845Z,48.60
2018-04-24T10:13:26.451Z,48.60
2018-04-24T10:15:53.857Z,48.60
2018-04-24T10:18:21.373Z,48.70
2018-04-24T10:20:48.862Z,48.60
2018-04-24T10:23:16.362Z,48.70
2018-04-24T10:25:45.398Z,48.70
2018-04-24T10:28:12.884Z,48.60
2018-04-24T10:30:40.365Z,48.70
2018-04-24T10:33:08.634Z,48.70
2018-04-24T10:35:37.766Z,48.70
2018-04-24T10:38:06.024Z,48.70
2018-04-24T10:40:33.546Z,48.60
2018-04-24T10:43:01.041Z,48.60
2018-04-24T10:45:28.530Z,48.70
2018-04-24T10:47:56.019Z,48.70
2018-04-24T10:50:23.513Z,48.60
2018-04-24T10:52:51.009Z,48.70
2018-04-24T10:55:18.496Z,48.80
2018-04-24T10:57:46.000Z,48.70
2018-04-24T11:00:13.477Z,48.80
2018-04-24T11:02:40.977Z,48.70
2018-04-24T11:05:09.263Z,48.70
2018-04-24T11:07:37.509Z,48.90
2018-04-24T11:10:04.992Z,48.90
2018-04-24T11:12:33.236Z,49.40
2018-04-24T11:15:00.760Z,49.40
2018-04-24T11:17:28.827Z,49.60
2018-04-24T11:19:56.925Z,49.60
2018-04-24T11:22:24.451Z,49.60
2018-04-24T11:24:51.960Z,49.70
2018-04-24T11:27:19.463Z,49.70
2018-04-24T11:29:46.961Z,49.70
2018-04-24T11:32:14.437Z,50.00
2018-04-24T11:34:42.458Z,50.20
2018-04-24T11:37:11.020Z,50.40
2018-04-24T11:39:38.505Z,50.30
2018-04-24T11:42:05.996Z,50.60
2018-04-24T11:44:34.092Z,50.40
2018-04-24T11:47:01.680Z,50.40
2018-04-24T11:49:29.283Z,50.90
2018-04-24T11:51:56.801Z,51.30
2018-04-24T11:54:24.492Z,51.70
2018-04-24T11:56:52.012Z,51.60
2018-04-24T11:59:19.638Z,51.70
2018-04-24T12:01:47.212Z,51.70
2018-04-24T12:04:16.177Z,51.60
2018-04-24T12:06:43.726Z,51.60
2018-04-24T12:09:11.209Z,51.50
2018-04-24T12:11:39.504Z,51.30
2018-04-24T12:14:07.045Z,51.30
2018-04-24T12:16:35.942Z,51.70
2018-04-24T12:19:04.177Z,51.40
2018-04-24T12:21:31.672Z,51.50
2018-04-24T12:23:59.194Z,51.20
2018-04-24T12:26:26.685Z,51.10
2018-04-24T12:28:54.945Z,51.00
2018-04-24T12:31:22.428Z,50.90
2018-04-24T12:33:50.685Z,50.90
2018-04-24T12:36:18.946Z,51.20
2018-04-24T12:38:46.492Z,50.90
2018-04-24T12:41:13.930Z,50.90
2018-04-24T12:43:41.417Z,50.80
2018-04-24T12:46:08.894Z,50.80
2018-04-24T12:48:37.174Z,52.80
2018-04-24T12:51:06.025Z,52.90
2018-04-24T12:53:33.514Z,52.90
2018-04-24T12:56:01.762Z,53.20
2018-04-24T12:58:29.269Z,53.10
2018-04-24T13:00:56.762Z,54.90
2018-04-24T13:03:24.249Z,55.40
2018-04-24T13:05:51.821Z,55.30
2018-04-24T13:08:20.074Z,54.70
2018-04-24T13:10:48.165Z,54.70
2018-04-24T13:13:15.669Z,53.80
2018-04-24T13:15:43.174Z,53.20
2018-04-24T13:18:10.672Z,53.10
2018-04-24T13:20:38.157Z,53.30
2018-04-24T13:23:05.623Z,53.30
2018-04-24T13:25:33.207Z,53.30
2018-04-24T13:28:00.666Z,53.20
2018-04-24T13:30:28.925Z,52.90
2018-04-24T13:32:56.466Z,52.90
2018-04-24T13:35:24.442Z,52.90
2018-04-24T13:37:51.989Z,52.60
2018-04-24T13:40:19.497Z,52.60
2018-04-24T13:42:47.753Z,52.30
2018-04-24T13:45:15.225Z,52.30
2018-04-24T13:47:43.498Z,52.40
2018-04-24T13:50:11.813Z,52.20
2018-04-24T13:52:39.332Z,52.20
2018-04-24T13:55:07.583Z,52.20
2018-04-24T13:57:35.096Z,52.20
2018-04-24T14:00:02.595Z,52.20
2018-04-24T14:02:30.083Z,52.10
2018-04-24T14:04:58.808Z,52.10
2018-04-24T14:07:26.332Z,52.10
2018-04-24T14:09:54.604Z,52.10
2018-04-24T14:12:22.887Z,52.10
2018-04-24T14:14:50.368Z,52.00
2018-04-24T14:17:17.908Z,52.10
2018-04-24T14:19:45.411Z,52.00
2018-04-24T14:22:13.712Z,51.90
2018-04-24T14:24:41.971Z,52.00
2018-04-24T14:27:09.481Z,52.10
2018-04-24T14:29:36.976Z,52.00
2018-04-24T14:32:04.506Z,52.00
2018-04-24T14:34:31.994Z,52.00
2018-04-24T14:36:59.508Z,51.80
2018-04-24T14:39:27.725Z,51.80
2018-04-24T14:41:55.210Z,51.80
2018-04-24T14:44:23.467Z,51.70
2018-04-24T14:46:51.033Z,51.70
2018-04-24T14:49:18.544Z,51.60
2018-04-24T14:51:46.129Z,51.50
2018-04-24T14:54:13.674Z,51.50
2018-04-24T14:56:41.286Z,51.50
2018-04-24T14:59:09.566Z,51.90
2018-04-24T15:01:37.821Z,51.70
2018-04-24T15:04:05.359Z,51.70
2018-04-24T15:06:42.638Z,51.50
2018-04-24T15:09:10.147Z,51.50
2018-04-24T15:11:38.381Z,51.50
2018-04-24T15:14:05.869Z,51.50
2018-04-24T15:16:34.117Z,51.50
2018-04-24T15:19:01.605Z,51.50
2018-04-24T15:21:29.884Z,51.50
2018-04-24T15:23:58.853Z,51.50
2018-04-24T15:26:26.337Z,51.50
2018-04-24T15:28:54.592Z,51.50
2018-04-24T15:34:34.836Z,51.40
2018-04-24T15:37:02.340Z,51.50
2018-04-24T15:39:30.614Z,51.40
2018-04-24T15:41:58.157Z,51.50
2018-04-24T15:44:25.646Z,51.20
2018-04-24T15:46:53.125Z,51.40
2018-04-24T15:49:20.721Z,51.30
2018-04-24T15:51:48.127Z,51.30
2018-04-24T15:54:15.641Z,51.20
2018-04-24T15:56:43.911Z,51.30
2018-04-24T15:59:11.476Z,51.30
2018-04-24T16:01:38.976Z,51.30
2018-04-24T16:04:06.479Z,51.20
2018-04-24T16:06:33.995Z,51.20
2018-04-24T16:09:02.254Z,51.30
2018-04-24T16:11:29.748Z,51.30
2018-04-24T16:13:57.244Z,51.20
2018-04-24T16:16:25.503Z,51.30
2018-04-24T16:18:52.992Z,51.30
2018-04-24T16:21:20.509Z,51.30
2018-04-24T16:23:47.996Z,51.20
2018-04-24T16:26:16.311Z,51.30
2018-04-24T16:28:43.851Z,51.30
2018-04-24T16:31:11.390Z,51.20
2018-04-24T16:33:39.664Z,51.20
2018-04-24T16:36:07.948Z,51.20
2018-04-24T16:38:36.218Z,51.10
2018-04-24T16:41:04.705Z,51.20
2018-04-24T16:43:32.243Z,51.20
2018-04-24T16:46:01.245Z,51.10
2018-04-24T16:48:29.517Z,51.10
2018-04-24T16:50:57.805Z,51.10
2018-04-24T16:53:26.072Z,51.00
2018-04-24T16:55:54.335Z,51.00
2018-04-24T16:58:21.817Z,51.00
2018-04-24T17:00:50.051Z,51.10
2018-04-24T17:03:17.583Z,51.10
2018-04-24T17:05:45.087Z,51.10
2018-04-24T17:08:13.370Z,51.90
2018-04-24T17:10:42.782Z,51.20
2018-04-24T17:13:10.282Z,51.20
2018-04-24T17:15:37.767Z,51.20
2018-04-24T17:18:05.340Z,51.20
2018-04-24T17:20:33.745Z,51.10
2018-04-24T17:23:01.321Z,51.10
2018-04-24T17:25:29.588Z,51.20
2018-04-24T17:27:57.069Z,51.30
2018-04-24T17:30:24.583Z,51.30
2018-04-24T17:32:52.081Z,51.30
2018-04-24T17:35:19.583Z,51.30
2018-04-24T17:37:47.857Z,51.30
2018-04-24T17:40:16.119Z,51.30
2018-04-24T17:42:44.413Z,51.30
2018-04-24T17:45:11.887Z,51.30
2018-04-24T17:47:39.394Z,51.30
2018-04-24T17:50:06.899Z,51.30
2018-04-24T17:52:35.225Z,51.30
2018-04-24T17:55:02.734Z,51.30
2018-04-24T17:57:30.270Z,51.30
2018-04-24T17:59:57.873Z,51.40
2018-04-24T18:02:25.385Z,51.30
2018-04-24T18:04:52.918Z,51.30
2018-04-24T18:07:20.404Z,51.30
2018-04-24T18:09:47.904Z,51.30
2018-04-24T18:12:15.388Z,51.30
2018-04-24T18:14:42.963Z,51.30
2018-04-24T18:17:11.146Z,51.40
2018-04-24T18:19:38.681Z,51.40
2018-04-24T18:22:06.258Z,51.40
2018-04-24T18:24:33.752Z,51.40
2018-04-24T18:27:01.331Z,51.50
2018-04-24T18:29:29.557Z,51.50
2018-04-24T18:31:58.546Z,51.50
2018-04-24T18:34:26.080Z,51.50
2018-04-24T18:36:53.585Z,51.50
2018-04-24T18:39:21.841Z,51.50
2018-04-24T18:41:49.342Z,51.40
2018-04-24T18:44:16.938Z,52.10
2018-04-24T18:46:45.145Z,51.40
2018-04-24T18:49:13.425Z,51.40
2018-04-24T18:51:40.938Z,51.40
2018-04-24T18:54:08.466Z,51.30
2018-04-24T18:56:35.999Z,52.00
2018-04-24T18:59:04.277Z,51.30
2018-04-24T19:01:32.369Z,51.30
2018-04-24T19:03:59.866Z,51.30
2018-04-24T19:06:27.819Z,51.30
2018-04-24T19:08:55.351Z,51.30
2018-04-24T19:11:22.860Z,51.20
2018-04-24T19:13:50.345Z,51.20
2018-04-24T19:16:18.626Z,51.20
2018-04-24T19:18:51.774Z,51.20
2018-04-24T19:21:19.283Z,51.20
2018-04-24T19:23:46.817Z,51.10
2018-04-24T19:26:15.082Z,51.20
2018-04-24T19:28:42.594Z,51.20
2018-04-24T19:31:15.934Z,51.20
2018-04-24T19:33:44.208Z,51.20
2018-04-24T19:36:12.477Z,51.20
2018-04-24T19:38:39.979Z,51.20
2018-04-24T19:41:13.240Z,51.20
2018-04-24T19:43:41.509Z,51.20
2018-04-24T19:46:09.795Z,51.10
2018-04-24T19:51:45.009Z,51.00
2018-04-24T19:54:12.537Z,51.10
2018-04-24T19:56:40.025Z,51.10
2018-04-24T19:59:07.519Z,51.10
2018-04-24T20:01:35.839Z,51.10
2018-04-24T20:04:03.385Z,51.10
2018-04-24T20:06:30.885Z,51.00
2018-04-24T20:08:58.381Z,51.00
2018-04-24T20:11:26.661Z,51.00
2018-04-24T20:13:54.936Z,51.00
2018-04-24T20:16:23.824Z,51.00
2018-04-24T20:18:52.070Z,51.00
2018-04-24T20:21:20.036Z,51.00
2018-04-24T20:23:47.554Z,51.00
2018-04-24T20:26:15.045Z,51.00
2018-04-24T20:28:42.554Z,51.00
2018-04-24T20:31:10.063Z,51.00
2018-04-24T20:33:37.553Z,51.00
2018-04-24T20:36:05.814Z,51.10
2018-04-24T20:38:33.375Z,50.90
2018-04-24T20:41:00.829Z,51.00
2018-04-24T20:43:28.361Z,51.00
2018-04-24T20:45:55.855Z,51.00
2018-04-24T20:48:24.140Z,50.90
2018-04-24T20:50:52.410Z,50.90
2018-04-24T20:53:20.876Z,50.90
2018-04-24T20:55:48.323Z,50.90
2018-04-24T20:58:15.865Z,51.00
2018-04-24T21:00:43.441Z,50.90
2018-04-24T21:03:10.889Z,50.90
2018-04-24T21:05:38.435Z,50.90
2018-04-24T21:08:06.769Z,50.80
2018-04-24T21:10:34.295Z,50.90
2018-04-24T21:13:01.803Z,50.80
2018-04-24T21:15:29.308Z,50.80
2018-04-24T21:17:56.790Z,50.80
2018-04-24T21:20:24.290Z,51.10
2018-04-24T21:22:51.823Z,50.80
2018-04-24T21:25:19.310Z,50.80
2018-04-24T21:27:46.845Z,50.80
2018-04-24T21:30:14.358Z,50.80
2018-04-24T21:32:42.631Z,50.90
2018-04-24T21:35:10.162Z,50.90
2018-04-24T21:37:37.625Z,50.80
2018-04-24T21:40:05.128Z,50.80
2018-04-24T21:42:33.389Z,50.90
2018-04-24T21:45:01.659Z,50.90
2018-04-24T21:47:29.928Z,50.80
2018-04-24T21:49:57.419Z,50.80
2018-04-24T21:52:24.931Z,50.80
2018-04-24T21:54:52.417Z,50.80
2018-04-24T21:57:20.801Z,50.80
2018-04-24T21:59:49.065Z,50.80
2018-04-24T22:02:17.326Z,50.90
2018-04-24T22:04:44.845Z,50.80
2018-04-24T22:07:12.332Z,50.70
2018-04-24T22:09:39.828Z,50.70
2018-04-24T22:12:07.356Z,50.70
2018-04-24T22:14:34.864Z,50.70
2018-04-24T22:17:02.334Z,50.70
2018-04-24T22:19:29.838Z,50.70
2018-04-24T22:21:58.080Z,51.30
2018-04-24T22:24:25.585Z,50.70
2018-04-24T22:26:53.836Z,50.80
2018-04-24T22:29:21.312Z,50.80
2018-04-24T22:31:49.598Z,50.80
2018-04-24T22:34:17.546Z,50.80
2018-04-24T22:36:45.824Z,50.70
2018-04-24T22:39:14.069Z,50.70
2018-04-24T22:41:41.594Z,50.70
2018-04-24T22:44:09.945Z,50.70
2018-04-24T22:46:38.189Z,50.70
2018-04-24T22:49:05.676Z,50.70
2018-04-24T22:51:33.794Z,50.70
2018-04-24T22:54:01.378Z,50.70
2018-04-24T22:56:28.883Z,50.70
2018-04-24T22:58:56.989Z,50.70
2018-04-24T23:01:24.458Z,50.70
2018-04-24T23:03:51.940Z,50.70
2018-04-24T23:06:21.643Z,50.80
2018-04-24T23:08:49.904Z,50.30
2018-04-24T23:11:29.326Z,50.70
2018-04-24T23:14:09.321Z,50.70
2018-04-24T23:16:50.176Z,50.70
2018-04-24T23:19:29.637Z,50.70
2018-04-24T23:21:56.721Z,50.70
2018-04-24T23:24:24.222Z,50.80
2018-04-24T23:26:53.199Z,50.80
2018-04-24T23:29:20.676Z,50.80
2018-04-24T23:31:48.961Z,50.80
2018-04-24T23:34:17.221Z,50.80
2018-04-24T23:36:45.467Z,50.80
2018-04-24T23:39:12.948Z,50.80
2018-04-24T23:41:40.432Z,50.80
2018-04-24T23:44:07.910Z,51.10
2018-04-24T23:46:35.991Z,50.70
2018-04-24T23:49:03.509Z,50.80
2018-04-24T23:51:31.762Z,50.60
2018-04-24T23:53:59.298Z,50.70
2018-04-24T23:56:26.872Z,50.70
2018-04-24T23:58:54.377Z,50.70
